Terminal Aerodrome Forecast
Issued by NWS Shreveport, LA

Home | Current Version | Previous Version | Text Only | Print | Product List | Glossary On
Versions: 1 2 3 4 5 6 7 8 9 10 11 12 13 14 15 16 17 18
000
FTUS44 KSHV 161413 AAA
TAFTXK
TAF AMD
KTXK 161413Z 1614/1712 19010KT P6SM SCT020
      TEMPO 1614/1616 BKN015
     FM161600 21011KT P6SM SCT035
      TEMPO 1616/1618 BKN025
     FM170100 18008KT P6SM BKN250=

USA.gov is the U.S. government's official web portal to all federal, state and local government web resources and services.